Time;durP1;ratioP1;P1;durP2;ratioP2;P2;SDS_P1;SDS_P2;PMS_P1;PMS_P2;Temp;Humidity;BMP_temperature;BMP_pressure;BME280_temperature;BME280_humidity;BME280_pressure;Samples;Min_cycle;Max_cycle;Signal;HPM_P1;HPM_P2
2022/03/13 00:02:17;;;;;;;6.97;1.30;;;22.80;99.90;;;;;;4932350;29;20047;-71
2022/03/13 00:04:48;;;;;;;9.35;1.88;;;22.90;99.90;;;;;;4934233;29;20511;-68
2022/03/13 00:07:19;;;;;;;6.20;1.20;;;23.00;99.90;;;;;;4934356;29;20035;-74
2022/03/13 00:09:50;;;;;;;4.35;1.02;;;23.10;99.90;;;;;;4934691;29;20047;-73
2022/03/13 00:12:30;;;;;;;3.20;0.73;;;23.20;99.90;;;;;;4935312;29;20020;-77
2022/03/13 00:15:01;;;;;;;6.57;1.10;;;23.30;99.90;;;;;;4935206;29;20032;-75
2022/03/13 00:17:29;;;;;;;3.08;0.90;;;23.30;99.90;;;;;;4934870;29;20042;-78
2022/03/13 00:20:04;;;;;;;10.18;1.05;;;23.40;99.90;;;;;;4934541;29;20044;-73
2022/03/13 00:22:33;;;;;;;8.77;2.00;;;23.60;99.90;;;;;;4934446;29;20106;-76
2022/03/13 00:25:02;;;;;;;14.48;1.85;;;23.80;99.90;;;;;;4934729;29;20163;-77
2022/03/13 00:27:31;;;;;;;5.22;1.00;;;23.90;99.90;;;;;;4934564;29;20460;-77
2022/03/13 00:29:59;;;;;;;7.00;1.23;;;23.90;99.90;;;;;;4934846;29;20032;-76
2022/03/13 00:32:45;;;;;;;4.82;1.20;;;24.00;99.90;;;;;;4933953;29;20035;-69
2022/03/13 00:35:13;;;;;;;5.20;1.35;;;24.00;99.90;;;;;;4933983;29;20039;-76
2022/03/13 00:37:41;;;;;;;7.35;1.27;;;24.10;99.90;;;;;;4934314;29;20028;-78
2022/03/13 00:40:08;;;;;;;6.25;1.30;;;24.10;99.90;;;;;;4917826;29;20481;-78
2022/03/13 00:42:36;;;;;;;6.10;0.90;;;24.20;99.90;;;;;;4934867;29;20031;-77
2022/03/13 00:45:04;;;;;;;10.20;1.75;;;24.20;99.90;;;;;;4934893;29;20484;-77
2022/03/13 00:47:32;;;;;;;3.58;1.20;;;24.30;99.90;;;;;;4934248;29;20039;-76
2022/03/13 00:49:59;;;;;;;5.68;1.20;;;24.30;99.90;;;;;;4934758;29;20028;-75
2022/03/13 00:52:26;;;;;;;5.25;0.93;;;24.40;99.90;;;;;;4934644;29;20054;-73
2022/03/13 00:54:53;;;;;;;6.00;0.95;;;24.40;99.90;;;;;;4934529;29;20082;-77
2022/03/13 00:57:21;;;;;;;6.93;1.20;;;24.40;99.90;;;;;;4934669;29;20132;-76
2022/03/13 00:59:48;;;;;;;5.75;0.93;;;24.30;99.90;;;;;;4934470;29;20650;-76
2022/03/13 01:02:16;;;;;;;4.82;1.20;;;24.30;99.90;;;;;;4917875;29;20024;-75
2022/03/13 01:04:43;;;;;;;4.57;1.13;;;24.30;99.90;;;;;;4933962;29;20063;-70
2022/03/13 01:07:12;;;;;;;4.45;0.93;;;24.30;99.90;;;;;;4934446;29;20417;-73
2022/03/13 01:09:40;;;;;;;7.03;0.90;;;24.20;99.90;;;;;;4934468;29;20031;-76
2022/03/13 01:12:08;;;;;;;4.43;0.80;;;24.10;99.90;;;;;;4934665;29;20043;-75
2022/03/13 01:14:37;;;;;;;4.43;0.90;;;24.10;99.90;;;;;;4934860;29;20023;-77
2022/03/13 01:17:07;;;;;;;3.30;1.38;;;24.00;99.90;;;;;;4934611;29;20091;-74
2022/03/13 01:19:40;;;;;;;6.18;1.23;;;23.90;99.90;;;;;;4934178;29;20087;-75
2022/03/13 01:22:07;;;;;;;5.63;0.95;;;23.80;99.90;;;;;;4934381;29;20078;-77
2022/03/13 01:24:43;;;;;;;6.28;1.63;;;23.70;99.90;;;;;;4934072;29;20056;-77
2022/03/13 01:27:15;;;;;;;4.13;1.40;;;23.50;99.90;;;;;;4934290;29;20039;-76
2022/03/13 01:29:43;;;;;;;;;;;23.40;99.90;;;;;;4938272;29;20028;-77
2022/03/13 01:32:14;;;;;;;6.38;1.63;;;23.30;99.90;;;;;;4937345;29;19978;-75
2022/03/13 01:34:51;;;;;;;6.18;1.20;;;23.20;99.90;;;;;;4937798;29;20028;-71
2022/03/13 01:37:33;;;;;;;6.72;1.10;;;23.10;99.90;;;;;;4920471;29;20485;-67
2022/03/13 01:40:10;;;;;;;6.03;1.00;;;23.00;99.90;;;;;;4937387;29;20016;-77
2022/03/13 01:42:40;;;;;;;5.80;1.20;;;22.90;99.90;;;;;;4934310;29;20031;-78
2022/03/13 01:45:12;;;;;;;3.88;0.90;;;22.90;99.90;;;;;;4937502;29;20074;-77
2022/03/13 01:47:44;;;;;;;7.00;1.20;;;22.90;99.90;;;;;;4937642;29;20035;-77
2022/03/13 01:50:13;;;;;;;6.40;0.90;;;23.00;99.90;;;;;;4937518;29;20039;-76
2022/03/13 01:52:44;;;;;;;8.18;0.90;;;23.10;99.90;;;;;;4937708;29;20082;-76
2022/03/13 01:55:12;;;;;;;3.20;0.87;;;23.20;99.90;;;;;;4937369;29;20459;-66
2022/03/13 01:57:40;;;;;;;5.65;2.08;;;23.30;99.90;;;;;;4936891;29;20111;-66
2022/03/13 02:00:11;;;;;;;5.07;1.08;;;23.50;99.90;;;;;;4920085;29;20028;-78
2022/03/13 02:02:44;;;;;;;4.85;0.65;;;23.60;99.90;;;;;;4937082;29;20027;-77
2022/03/13 02:05:19;;;;;;;;;;;23.60;99.90;;;;;;4937652;29;20044;-78
2022/03/13 02:07:46;;;;;;;10.73;2.83;;;23.60;99.90;;;;;;4937168;29;20053;-76
2022/03/13 02:10:14;;;;;;;4.25;2.05;;;23.60;99.90;;;;;;4936598;29;20115;-68
2022/03/13 02:12:41;;;;;;;4.05;1.05;;;23.50;99.90;;;;;;4936548;29;20371;-66
2022/03/13 02:15:09;;;;;;;5.10;1.70;;;23.40;99.90;;;;;;4936396;29;20106;-74
2022/03/13 02:17:36;;;;;;;3.90;1.15;;;23.30;99.90;;;;;;4936631;29;20028;-76
2022/03/13 02:20:05;;;;;;;3.78;1.52;;;23.20;99.90;;;;;;4936625;29;20055;-67
2022/03/13 02:22:32;;;;;;;12.52;3.55;;;23.10;99.90;;;;;;4936854;29;20028;-73
2022/03/13 02:25:00;;;;;;;20.98;5.43;;;23.00;99.90;;;;;;4936829;29;20436;-69
2022/03/13 02:27:29;;;;;;;18.38;4.40;;;22.80;99.90;;;;;;4936860;29;20098;-67
2022/03/13 02:29:57;;;;;;;13.63;3.38;;;22.60;99.90;;;;;;4936808;29;20028;-68
2022/03/13 02:32:24;;;;;;;12.55;3.60;;;22.40;99.90;;;;;;4936981;29;20027;-67
2022/03/13 02:34:54;;;;;;;12.65;3.88;;;22.30;99.90;;;;;;4936633;29;20051;-77
2022/03/13 02:37:41;;;;;;;10.18;2.97;;;22.10;99.90;;;;;;4936401;29;20456;-72
2022/03/13 02:40:17;;;;;;;9.38;2.10;;;22.00;99.90;;;;;;4935256;29;20027;-68
2022/03/13 02:42:44;;;;;;;7.28;2.05;;;21.80;99.90;;;;;;4936512;29;20447;-67
2022/03/13 02:45:22;;;;;;;9.05;2.30;;;21.70;99.90;;;;;;4936459;29;20127;-67
2022/03/13 02:47:49;;;;;;;8.23;2.53;;;21.60;99.90;;;;;;4936145;29;20429;-67
2022/03/13 02:50:18;;;;;;;5.03;1.75;;;21.50;99.90;;;;;;4936113;29;20470;-72
2022/03/13 02:52:45;;;;;;;6.40;1.52;;;21.40;99.90;;;;;;4936464;29;20045;-65
2022/03/13 02:55:13;;;;;;;5.55;1.45;;;21.40;99.90;;;;;;4936520;29;20055;-71
2022/03/13 02:57:40;;;;;;;3.42;0.98;;;21.40;99.90;;;;;;4936433;29;20035;-76
2022/03/13 03:00:12;;;;;;;6.68;1.15;;;21.40;99.90;;;;;;4936169;29;20030;-76
2022/03/13 03:02:39;;;;;;;6.57;1.37;;;21.50;99.90;;;;;;4936017;29;20031;-76
2022/03/13 03:05:08;;;;;;;6.88;1.48;;;21.50;99.90;;;;;;4936200;29;20449;-65
2022/03/13 03:07:37;;;;;;;4.22;1.70;;;21.50;99.90;;;;;;4935808;29;20024;-72
2022/03/13 03:10:05;;;;;;;2.42;0.95;;;21.50;99.90;;;;;;4935880;29;20027;-69
2022/03/13 03:12:34;;;;;;;8.68;1.80;;;21.50;99.90;;;;;;4935903;29;20055;-67
2022/03/13 03:15:01;;;;;;;5.43;1.20;;;21.60;99.90;;;;;;4919157;29;20115;-66
2022/03/13 03:17:29;;;;;;;4.10;1.20;;;21.70;99.90;;;;;;4936053;29;20028;-67
2022/03/13 03:19:56;;;;;;;5.03;1.00;;;21.90;99.90;;;;;;4935655;29;20042;-74
2022/03/13 03:22:23;;;;;;;6.60;1.67;;;22.20;99.90;;;;;;4919093;29;20036;-66
2022/03/13 03:24:51;;;;;;;4.85;0.95;;;22.50;99.90;;;;;;4935981;29;20392;-74
2022/03/13 03:27:18;;;;;;;3.88;0.90;;;22.70;99.90;;;;;;4935692;29;20540;-76
2022/03/13 03:29:45;;;;;;;3.63;0.68;;;23.00;99.90;;;;;;4935884;29;20031;-68
2022/03/13 03:32:12;;;;;;;2.55;0.80;;;23.20;99.90;;;;;;4935674;29;20047;-74
2022/03/13 03:34:40;;;;;;;6.10;0.98;;;23.20;99.90;;;;;;4935754;29;20056;-70
2022/03/13 03:37:07;;;;;;;5.47;0.98;;;23.30;99.90;;;;;;4935800;29;20075;-72
2022/03/13 03:39:34;;;;;;;4.25;1.10;;;23.40;99.90;;;;;;4918534;29;20039;-76
2022/03/13 03:42:02;;;;;;;5.78;2.92;;;23.40;99.90;;;;;;4935450;29;20102;-75
2022/03/13 03:44:29;;;;;;;7.35;3.70;;;23.30;99.90;;;;;;4934860;29;20020;-73
2022/03/13 03:46:57;;;;;;;3.95;2.22;;;23.30;99.90;;;;;;4935103;29;20032;-76
2022/03/13 03:49:25;;;;;;;6.30;1.85;;;23.30;99.90;;;;;;4934919;29;20038;-70
2022/03/13 03:51:53;;;;;;;1.80;0.68;;;23.40;99.90;;;;;;4917818;29;20036;-76
2022/03/13 03:54:22;;;;;;;3.20;0.80;;;23.50;99.90;;;;;;4935190;29;20106;-68
2022/03/13 03:56:49;;;;;;;3.72;0.60;;;23.50;99.90;;;;;;4918230;29;20028;-73
2022/03/13 03:59:20;;;;;;;4.32;0.75;;;23.50;99.90;;;;;;4935180;29;20031;-74
2022/03/13 04:01:47;;;;;;;3.80;1.02;;;23.60;99.90;;;;;;4935034;29;20023;-73
2022/03/13 04:04:14;;;;;;;2.63;0.70;;;23.70;99.90;;;;;;4935021;29;20024;-77
2022/03/13 04:06:42;;;;;;;3.63;0.68;;;23.80;99.90;;;;;;4934876;29;20140;-76
2022/03/13 04:09:13;;;;;;;2.70;0.70;;;23.90;99.90;;;;;;4935278;29;20103;-78
2022/03/13 04:11:41;;;;;;;4.35;1.33;;;24.00;99.90;;;;;;4935055;29;20032;-77
2022/03/13 04:14:12;;;;;;;4.00;0.98;;;24.00;99.90;;;;;;4935170;29;20039;-74
2022/03/13 04:16:40;;;;;;;3.72;0.63;;;24.00;99.90;;;;;;4934832;29;20023;-74
2022/03/13 04:19:11;;;;;;;2.63;1.17;;;24.10;99.90;;;;;;4931067;29;20044;-76
2022/03/13 04:21:42;;;;;;;5.03;1.15;;;24.30;99.90;;;;;;4934478;29;20058;-74
2022/03/13 04:24:11;;;;;;;4.72;1.17;;;24.40;99.90;;;;;;4934400;29;20040;-68
2022/03/13 04:26:42;;;;;;;2.63;0.98;;;24.60;99.90;;;;;;4934430;29;20039;-67
2022/03/13 04:29:10;;;;;;;2.58;0.60;;;24.80;99.90;;;;;;4932073;29;20024;-66
2022/03/13 04:31:41;;;;;;;4.15;0.88;;;25.00;99.90;;;;;;4934807;29;20032;-71
2022/03/13 04:34:09;;;;;;;3.17;0.70;;;25.20;99.90;;;;;;4934405;29;20024;-69
2022/03/13 04:36:37;;;;;;;3.38;1.40;;;25.40;99.90;;;;;;4933911;29;20020;-75
2022/03/13 04:39:05;;;;;;;4.90;1.85;;;25.40;99.90;;;;;;4916562;29;20028;-75
2022/03/13 04:41:33;;;;;;;4.00;1.83;;;25.40;99.90;;;;;;4915488;29;20077;-67
2022/03/13 04:44:01;;;;;;;5.38;1.63;;;25.50;99.90;;;;;;4915199;29;20029;-76
2022/03/13 04:46:28;;;;;;;4.80;0.85;;;25.80;99.90;;;;;;4918276;29;20036;-77
2022/03/13 04:48:57;;;;;;;3.95;1.20;;;26.10;99.90;;;;;;4917880;29;20024;-76
2022/03/13 04:51:24;;;;;;;5.45;1.42;;;26.20;99.90;;;;;;4915850;29;20032;-76
2022/03/13 04:53:51;;;;;;;6.90;1.08;;;26.10;99.90;;;;;;4915400;29;20032;-76
2022/03/13 04:56:19;;;;;;;4.65;1.08;;;26.00;99.90;;;;;;4915371;29;20028;-73
2022/03/13 04:58:46;;;;;;;7.97;1.05;;;26.00;99.90;;;;;;4915256;29;20393;-75
2022/03/13 05:01:13;;;;;;;4.93;0.75;;;25.90;99.90;;;;;;4915096;29;20056;-75
2022/03/13 05:03:41;;;;;;;4.00;1.10;;;25.90;99.90;;;;;;4917310;29;20025;-75
2022/03/13 05:06:08;;;;;;;8.07;1.50;;;25.90;99.90;;;;;;4919177;29;20126;-75
2022/03/13 05:08:36;;;;;;;5.10;1.38;;;26.00;99.90;;;;;;4919010;29;20607;-76
2022/03/13 05:11:07;;;;;;;3.75;0.80;;;25.90;99.90;;;;;;4919420;29;20084;-70
2022/03/13 05:13:35;;;;;;;6.75;1.65;;;25.70;99.90;;;;;;4921426;29;20543;-76
2022/03/13 05:16:02;;;;;;;3.88;1.00;;;25.50;99.90;;;;;;4927944;29;20118;-76
2022/03/13 05:18:30;;;;;;;2.90;0.60;;;25.00;99.90;;;;;;4926013;29;20020;-75
2022/03/13 05:20:58;;;;;;;2.17;0.60;;;24.70;99.90;;;;;;4929675;29;20099;-74
2022/03/13 05:23:25;;;;;;;3.63;0.50;;;24.60;99.90;;;;;;4910130;29;20038;-73
2022/03/13 05:25:52;;;;;;;4.10;0.68;;;24.50;99.90;;;;;;4926306;29;20036;-76
2022/03/13 05:28:20;;;;;;;2.55;0.80;;;24.50;99.90;;;;;;4925237;29;20027;-76
2022/03/13 05:30:47;;;;;;;4.20;1.02;;;24.40;99.90;;;;;;4927627;29;20800;-76
2022/03/13 05:33:15;;;;;;;7.60;0.90;;;24.60;99.90;;;;;;4928450;29;20040;-75
2022/03/13 05:35:42;;;;;;;4.10;0.85;;;24.80;99.90;;;;;;4926060;29;20016;-75
2022/03/13 05:38:10;;;;;;;6.03;0.90;;;25.00;99.90;;;;;;4926145;29;20020;-75
2022/03/13 05:40:57;;;;;;;7.00;0.77;;;25.40;99.90;;;;;;4929113;29;20114;-81
2022/03/13 05:43:24;;;;;;;4.43;1.00;;;25.80;99.90;;;;;;4928529;29;20051;-85
2022/03/13 05:45:51;;;;;;;4.03;0.73;;;26.40;99.90;;;;;;4934829;29;20039;-85
2022/03/13 05:48:22;;;;;;;3.55;0.88;;;27.50;99.90;;;;;;4928161;29;20039;-84
2022/03/13 05:50:49;;;;;;;3.50;0.70;;;28.40;96.90;;;;;;4927717;29;20091;-71
2022/03/13 05:53:17;;;;;;;2.90;0.57;;;28.70;96.80;;;;;;4925484;29;20020;-74
2022/03/13 05:55:47;;;;;;;5.03;0.60;;;28.80;95.60;;;;;;4926642;29;20107;-80
2022/03/13 05:58:15;;;;;;;3.20;0.60;;;28.60;94.30;;;;;;4926099;29;20031;-86
2022/03/13 06:00:43;;;;;;;3.60;0.47;;;28.10;94.70;;;;;;4913060;29;20468;-89
2022/03/13 06:03:10;;;;;;;2.55;0.60;;;27.50;95.40;;;;;;4913400;29;20039;-83
2022/03/13 06:05:38;;;;;;;2.88;0.50;;;27.30;95.60;;;;;;4929982;29;20078;-90
2022/03/13 06:08:05;;;;;;;3.35;0.80;;;26.90;96.50;;;;;;4930311;29;20354;-87
2022/03/13 06:10:36;;;;;;;2.70;0.50;;;26.70;97.00;;;;;;4926674;29;20028;-90
2022/03/13 06:13:03;;;;;;;2.63;0.65;;;26.80;96.60;;;;;;4934178;29;20019;-91
2022/03/13 06:15:32;;;;;;;3.17;1.08;;;27.00;96.50;;;;;;4927234;29;20028;-91
2022/03/13 06:18:01;;;;;;;7.20;0.88;;;26.90;95.30;;;;;;4928486;29;20079;-91
2022/03/13 06:20:28;;;;;;;3.03;0.85;;;26.60;95.80;;;;;;4924815;29;20412;-88
2022/03/13 06:22:59;;;;;;;3.25;0.88;;;26.30;96.40;;;;;;4909165;29;20160;-80
2022/03/13 06:25:26;;;;;;;3.72;1.20;;;26.30;97.10;;;;;;4926890;29;20043;-78
2022/03/13 06:27:54;;;;;;;3.72;0.80;;;26.50;97.20;;;;;;4923008;29;20149;-79
2022/03/13 06:30:21;;;;;;;1.15;0.43;;;26.60;96.90;;;;;;4919395;29;20127;-76
2022/03/13 06:32:51;;;;;;;2.38;0.57;;;26.60;96.70;;;;;;4938368;23;20424;-70
2022/03/13 06:35:21;;;;;;;4.88;1.10;;;26.60;97.10;;;;;;4917939;29;20036;-71
2022/03/13 06:37:48;;;;;;;2.90;0.85;;;27.20;96.30;;;;;;4931633;29;20027;-71
2022/03/13 06:40:20;;;;;;;4.07;0.50;;;28.00;94.70;;;;;;4921649;29;20107;-72
2022/03/13 06:42:49;;;;;;;3.47;0.50;;;28.40;93.80;;;;;;4914929;29;20024;-70
2022/03/13 06:45:16;;;;;;;4.00;0.57;;;28.60;93.60;;;;;;4918875;29;20124;-72
2022/03/13 06:47:46;;;;;;;4.10;0.77;;;29.10;93.30;;;;;;4917084;29;20131;-72
2022/03/13 06:50:19;;;;;;;3.13;0.90;;;29.20;93.70;;;;;;4898739;29;20564;-72
2022/03/13 06:52:48;;;;;;;4.72;0.80;;;29.80;93.00;;;;;;4922735;29;20039;-71
2022/03/13 06:55:17;;;;;;;3.55;0.77;;;30.30;92.50;;;;;;4917441;29;20050;-72
2022/03/13 06:57:45;;;;;;;3.20;0.80;;;30.80;92.30;;;;;;4933858;29;20372;-71
2022/03/13 07:00:15;;;;;;;3.35;0.98;;;30.90;91.90;;;;;;4934285;29;20032;-71
2022/03/13 07:02:45;;;;;;;3.00;0.80;;;30.70;91.90;;;;;;4934849;29;20027;-70
2022/03/13 07:05:13;;;;;;;7.20;0.90;;;30.50;91.90;;;;;;4935515;29;20031;-72
2022/03/13 07:07:40;;;;;;;4.30;0.80;;;29.90;92.50;;;;;;4935713;29;20062;-71
2022/03/13 07:10:10;;;;;;;3.10;0.63;;;29.80;92.40;;;;;;4935740;29;20031;-72
2022/03/13 07:12:38;;;;;;;3.90;0.90;;;29.40;92.70;;;;;;4918358;29;20106;-69
2022/03/13 07:15:10;;;;;;;6.97;1.17;;;28.90;93.20;;;;;;4918425;29;20023;-70
2022/03/13 07:17:37;;;;;;;4.13;1.13;;;28.20;94.00;;;;;;4935726;29;20038;-70
2022/03/13 07:20:06;;;;;;;4.82;1.00;;;27.50;94.90;;;;;;4935364;29;20496;-69
2022/03/13 07:22:33;;;;;;;4.68;0.70;;;26.80;96.10;;;;;;4935235;29;20067;-74
2022/03/13 07:25:01;;;;;;;4.18;0.70;;;26.40;96.30;;;;;;4935115;29;20023;-71
2022/03/13 07:27:28;;;;;;;2.97;0.50;;;26.00;96.90;;;;;;4934766;29;20020;-70
2022/03/13 07:29:56;;;;;;;5.65;1.10;;;25.50;97.80;;;;;;4935051;29;20023;-70
2022/03/13 07:32:23;;;;;;;5.45;0.90;;;25.30;98.30;;;;;;4934851;29;20127;-70
2022/03/13 07:34:50;;;;;;;2.63;0.73;;;25.00;98.50;;;;;;4935051;29;20052;-70
2022/03/13 07:37:18;;;;;;;4.63;0.95;;;24.80;99.10;;;;;;4934958;29;20032;-71
2022/03/13 07:39:48;;;;;;;4.10;0.90;;;24.60;99.30;;;;;;4934923;29;20019;-70
2022/03/13 07:42:16;;;;;;;2.80;0.82;;;24.50;99.60;;;;;;4934596;29;20039;-71
2022/03/13 07:44:45;;;;;;;4.63;1.40;;;24.40;99.90;;;;;;4935172;29;20031;-70
2022/03/13 07:47:13;;;;;;;7.45;2.83;;;24.20;99.90;;;;;;4934785;29;20016;-73
2022/03/13 07:49:41;;;;;;;13.07;10.13;;;24.00;99.90;;;;;;4934737;29;20503;-70
2022/03/13 07:52:08;;;;;;;14.50;9.23;;;23.90;99.90;;;;;;4934516;29;20068;-71
2022/03/13 07:54:36;;;;;;;4.18;1.48;;;23.70;99.90;;;;;;4934833;29;20119;-70
2022/03/13 07:57:03;;;;;;;5.43;1.92;;;23.60;99.90;;;;;;4934971;29;20028;-75
2022/03/13 07:59:30;;;;;;;5.65;1.35;;;23.50;99.90;;;;;;4934959;29;20028;-71
2022/03/13 08:01:58;;;;;;;3.28;1.05;;;23.30;99.90;;;;;;4934687;29;20024;-73
2022/03/13 08:04:26;;;;;;;6.00;2.45;;;23.20;99.90;;;;;;4934626;29;20036;-72
2022/03/13 08:06:54;;;;;;;5.22;2.10;;;23.10;99.90;;;;;;4934657;29;20043;-71
2022/03/13 08:09:21;;;;;;;4.80;2.08;;;23.00;99.90;;;;;;4934821;29;20024;-72
2022/03/13 08:11:48;;;;;;;7.78;2.22;;;22.90;99.90;;;;;;4934348;29;20028;-72
2022/03/13 08:14:15;;;;;;;5.25;1.20;;;22.90;99.90;;;;;;4934981;29;20480;-71
2022/03/13 08:16:43;;;;;;;5.32;1.92;;;22.90;99.90;;;;;;4934988;29;20111;-72
2022/03/13 08:19:10;;;;;;;5.50;1.52;;;22.80;99.90;;;;;;4934331;29;20052;-70
2022/03/13 08:21:38;;;;;;;4.18;2.60;;;22.70;99.90;;;;;;4934306;29;20488;-72
2022/03/13 08:24:07;;;;;;;6.10;2.42;;;22.60;99.90;;;;;;4917474;29;20102;-73
2022/03/13 08:26:40;;;;;;;9.05;4.70;;;22.60;99.90;;;;;;4934916;29;20020;-71
2022/03/13 08:29:08;;;;;;;7.55;2.63;;;22.60;99.90;;;;;;4934717;29;20447;-75
2022/03/13 08:31:36;;;;;;;6.90;3.47;;;22.50;99.90;;;;;;4934531;29;20104;-72
2022/03/13 08:34:10;;;;;;;6.43;1.73;;;22.50;99.90;;;;;;4934230;29;20044;-71
2022/03/13 08:36:39;;;;;;;7.65;2.15;;;22.40;99.90;;;;;;4935227;29;20030;-73
2022/03/13 08:39:07;;;;;;;5.10;2.17;;;22.40;99.90;;;;;;4938966;29;20028;-72
2022/03/13 08:41:35;;;;;;;4.75;1.17;;;22.40;99.90;;;;;;4938561;29;20075;-73
2022/03/13 08:44:03;;;;;;;7.90;1.70;;;22.40;99.90;;;;;;4937964;29;20052;-75
2022/03/13 08:46:30;;;;;;;4.55;1.80;;;22.40;99.90;;;;;;4937579;29;20031;-73
2022/03/13 08:48:57;;;;;;;3.75;1.20;;;22.40;99.90;;;;;;4937537;29;20058;-71
2022/03/13 08:51:27;;;;;;;6.28;1.23;;;22.40;99.90;;;;;;4937726;29;20480;-73
2022/03/13 08:53:56;;;;;;;4.10;1.13;;;22.30;99.90;;;;;;4937660;29;20051;-72
2022/03/13 08:56:24;;;;;;;2.75;0.93;;;22.30;99.90;;;;;;4937996;29;20059;-73
2022/03/13 08:58:53;;;;;;;5.65;0.95;;;22.20;99.90;;;;;;4937454;29;20055;-74
2022/03/13 09:01:22;;;;;;;5.68;0.70;;;22.20;99.90;;;;;;4937731;29;20027;-71
2022/03/13 09:03:49;;;;;;;5.40;1.17;;;22.10;99.90;;;;;;4938026;29;20091;-71
2022/03/13 09:06:17;;;;;;;5.95;1.02;;;22.10;99.90;;;;;;4937704;29;20036;-73
2022/03/13 09:08:44;;;;;;;9.10;2.03;;;22.20;99.90;;;;;;4937321;29;20024;-72
2022/03/13 09:11:11;;;;;;;5.85;1.88;;;22.10;99.90;;;;;;4937126;29;20035;-71
2022/03/13 09:13:39;;;;;;;5.20;1.30;;;22.10;99.90;;;;;;4937757;29;20023;-73
2022/03/13 09:16:06;;;;;;;7.30;1.40;;;22.10;99.90;;;;;;4937811;29;20380;-71
2022/03/13 09:18:35;;;;;;;5.80;1.33;;;22.10;99.90;;;;;;4937571;29;20019;-71
2022/03/13 09:21:02;;;;;;;4.35;0.93;;;22.00;99.90;;;;;;4937566;29;20404;-74
2022/03/13 09:23:30;;;;;;;4.85;1.17;;;22.00;99.90;;;;;;4934535;29;20028;-71
2022/03/13 09:25:58;;;;;;;4.68;1.38;;;22.10;99.90;;;;;;4927307;29;20043;-69
2022/03/13 09:28:26;;;;;;;6.45;1.38;;;22.10;99.90;;;;;;4925391;29;20477;-68
2022/03/13 09:30:54;;;;;;;6.93;1.40;;;22.10;99.90;;;;;;4925604;29;20131;-71
2022/03/13 09:33:21;;;;;;;6.55;2.25;;;22.10;99.90;;;;;;4926925;29;20043;-77
2022/03/13 09:35:48;;;;;;;5.90;2.40;;;22.10;99.90;;;;;;4910100;29;20060;-72
2022/03/13 09:38:16;;;;;;;6.78;1.77;;;22.00;99.90;;;;;;4927386;29;20032;-69
2022/03/13 09:40:43;;;;;;;4.85;1.23;;;22.10;99.90;;;;;;4918059;29;20082;-68
2022/03/13 09:43:11;;;;;;;4.68;1.50;;;22.10;99.90;;;;;;4916319;29;20039;-69
2022/03/13 09:45:38;;;;;;;6.28;1.40;;;22.10;99.90;;;;;;4928645;29;20035;-68
2022/03/13 09:48:15;;;;;;;4.05;1.05;;;22.10;99.90;;;;;;4937115;29;20034;-70
2022/03/13 09:50:46;;;;;;;4.05;1.30;;;22.10;99.90;;;;;;4937279;29;20024;-71
2022/03/13 09:53:14;;;;;;;4.38;1.20;;;22.10;99.90;;;;;;4937480;29;20024;-69
2022/03/13 09:55:41;;;;;;;5.45;1.15;;;22.10;99.90;;;;;;4937417;29;20484;-72
2022/03/13 09:58:09;;;;;;;6.70;1.70;;;22.10;99.90;;;;;;4932948;29;20036;-71
2022/03/13 10:00:37;;;;;;;9.18;1.63;;;22.10;99.90;;;;;;4925412;29;20023;-69
2022/03/13 10:03:14;;;;;;;5.45;1.00;;;22.10;99.90;;;;;;4925361;29;20016;-71
2022/03/13 10:05:47;;;;;;;4.07;0.95;;;22.10;99.90;;;;;;4908056;29;20031;-71
2022/03/13 10:08:15;;;;;;;5.20;1.10;;;22.10;99.90;;;;;;4924989;29;20027;-70
2022/03/13 10:10:50;;;;;;;5.72;1.13;;;22.00;99.90;;;;;;4927212;29;20083;-71
2022/03/13 10:13:37;;;;;;;5.18;1.50;;;22.00;99.90;;;;;;4924788;29;20031;-70
2022/03/13 10:16:06;;;;;;;3.17;1.20;;;22.00;99.90;;;;;;4926262;29;20020;-70
2022/03/13 10:18:34;;;;;;;5.43;1.15;;;22.00;99.90;;;;;;4925842;29;20027;-71
2022/03/13 10:21:12;;;;;;;4.25;1.40;;;22.00;99.90;;;;;;4924969;29;20024;-68
2022/03/13 10:23:43;;;;;;;4.70;1.52;;;22.00;99.90;;;;;;4924825;29;20016;-70
2022/03/13 10:26:10;;;;;;;3.63;1.33;;;22.00;99.90;;;;;;4926537;29;20040;-70
2022/03/13 10:28:40;;;;;;;5.22;1.48;;;22.00;99.90;;;;;;4924532;29;20071;-71
2022/03/13 10:31:11;;;;;;;6.15;1.35;;;21.90;99.90;;;;;;4925295;29;20024;-71
2022/03/13 10:33:47;;;;;;;5.15;1.48;;;21.90;99.90;;;;;;4924522;29;20047;-73
2022/03/13 10:36:21;;;;;;;5.45;1.60;;;21.80;99.90;;;;;;4924891;29;20016;-74
2022/03/13 10:38:50;;;;;;;6.13;1.30;;;21.80;99.90;;;;;;4924078;29;20110;-71
2022/03/13 10:41:20;;;;;;;4.85;2.17;;;21.70;99.90;;;;;;4924029;29;20012;-70
2022/03/13 10:43:54;;;;;;;7.25;1.58;;;21.70;99.90;;;;;;4925355;29;20035;-70
2022/03/13 10:46:30;;;;;;;6.57;1.50;;;21.60;99.90;;;;;;4923554;29;20036;-73
2022/03/13 10:48:59;;;;;;;5.40;1.67;;;21.60;99.90;;;;;;4923571;29;20043;-70
2022/03/13 10:51:47;;;;;;;4.22;1.55;;;21.50;99.90;;;;;;4923505;29;20099;-70
2022/03/13 10:54:32;;;;;;;5.70;1.55;;;21.50;99.90;;;;;;4924611;29;20024;-71
2022/03/13 10:57:11;;;;;;;8.00;1.83;;;21.50;99.90;;;;;;4923390;29;20743;-71
2022/03/13 10:59:41;;;;;;;4.80;1.27;;;21.40;99.90;;;;;;4907177;29;20388;-75
2022/03/13 11:02:16;;;;;;;9.07;1.67;;;21.40;99.90;;;;;;4922500;29;20516;-71
2022/03/13 11:04:52;;;;;;;5.40;1.88;;;21.30;99.90;;;;;;4924662;29;20432;-70
2022/03/13 11:07:22;;;;;;;5.22;1.42;;;21.20;99.90;;;;;;4923503;29;20056;-70
2022/03/13 11:09:49;;;;;;;6.78;1.30;;;21.20;99.90;;;;;;4924962;29;20080;-71
2022/03/13 11:12:20;;;;;;;4.15;1.10;;;21.20;99.90;;;;;;4924783;29;20048;-73
2022/03/13 11:14:53;;;;;;;5.85;1.40;;;21.20;99.90;;;;;;4923760;29;20027;-71
2022/03/13 11:17:22;;;;;;;7.00;2.35;;;21.10;99.90;;;;;;4924183;29;20016;-73
2022/03/13 11:19:53;;;;;;;7.35;1.88;;;21.10;99.90;;;;;;4907193;29;20035;-71
2022/03/13 11:22:21;;;;;;;4.80;1.95;;;21.00;99.90;;;;;;4923051;29;20027;-72
2022/03/13 11:24:50;;;;;;;3.72;1.60;;;21.00;99.90;;;;;;4922661;29;20035;-70
2022/03/13 11:27:18;;;;;;;6.32;1.77;;;21.00;99.90;;;;;;4923976;29;20024;-72
2022/03/13 11:29:52;;;;;;;5.53;1.45;;;20.90;99.90;;;;;;4923274;29;20380;-75
2022/03/13 11:32:40;;;;;;;6.90;1.88;;;20.90;99.90;;;;;;4827361;29;2812446;-70
2022/03/13 11:35:16;;;;;;;4.25;1.30;;;20.80;99.90;;;;;;4923498;29;20654;-71
2022/03/13 11:37:47;;;;;;;7.32;2.67;;;20.80;99.90;;;;;;4923376;29;20127;-69
2022/03/13 11:40:17;;;;;;;5.07;1.92;;;20.80;99.90;;;;;;4923433;29;20539;-70
2022/03/13 11:43:05;;;;;;;4.60;2.25;;;20.80;99.90;;;;;;4923348;29;20030;-71
2022/03/13 11:45:34;;;;;;;5.65;2.13;;;20.70;99.90;;;;;;4924103;29;20064;-73
2022/03/13 11:48:19;;;;;;;5.20;1.92;;;20.60;99.90;;;;;;4924847;29;20090;-72
2022/03/13 11:50:48;;;;;;;3.95;1.60;;;20.60;99.90;;;;;;4926301;29;20031;-71
2022/03/13 11:53:26;;;;;;;5.65;1.80;;;20.60;99.90;;;;;;4924358;29;20012;-71
2022/03/13 11:56:11;;;;;;;7.25;1.63;;;20.60;99.90;;;;;;4923666;29;20103;-69
2022/03/13 11:58:49;;;;;;;4.97;1.60;;;20.50;99.90;;;;;;4923199;29;20051;-72
2022/03/13 12:01:31;;;;;;;4.22;1.42;;;20.50;99.90;;;;;;4923264;29;20029;-71
2022/03/13 12:04:05;;;;;;;3.03;1.58;;;20.50;99.90;;;;;;4923109;29;20366;-70
2022/03/13 12:06:49;;;;;;;5.50;1.75;;;20.40;99.90;;;;;;4924502;29;20035;-73
2022/03/13 12:09:17;;;;;;;5.63;1.63;;;20.40;99.90;;;;;;4922998;29;20027;-73
2022/03/13 12:11:52;;;;;;;5.18;2.30;;;20.40;99.90;;;;;;4922719;29;20020;-71
2022/03/13 12:14:20;;;;;;;4.30;1.77;;;20.30;99.90;;;;;;4923533;29;20488;-69
2022/03/13 12:17:04;;;;;;;4.40;2.13;;;20.30;99.90;;;;;;4924231;29;20061;-69
2022/03/13 12:19:39;;;;;;;7.50;2.30;;;20.30;99.90;;;;;;4923238;29;20043;-69
2022/03/13 12:22:07;;;;;;;4.57;1.67;;;20.20;99.90;;;;;;4922983;29;20043;-70
2022/03/13 12:24:35;;;;;;;4.40;1.80;;;20.30;99.90;;;;;;4922831;29;20035;-71
2022/03/13 12:27:04;;;;;;;4.05;1.38;;;20.20;99.90;;;;;;4906994;29;20504;-69
2022/03/13 12:29:34;;;;;;;4.90;1.98;;;20.20;99.90;;;;;;4923755;29;20400;-70
2022/03/13 12:32:02;;;;;;;4.43;2.03;;;20.20;99.90;;;;;;4922180;29;21296;-69
2022/03/13 12:34:32;;;;;;;5.15;1.35;;;20.20;99.90;;;;;;4922506;29;20012;-69
2022/03/13 12:37:09;;;;;;;4.88;1.50;;;20.20;99.90;;;;;;4923822;29;20416;-71
2022/03/13 12:39:49;;;;;;;4.15;1.88;;;20.10;99.90;;;;;;4922761;29;20020;-71
2022/03/13 12:42:23;;;;;;;5.50;1.80;;;20.20;99.90;;;;;;4922927;29;20071;-70
2022/03/13 12:45:05;;;;;;;5.43;1.67;;;20.20;99.90;;;;;;4922683;29;20505;-71
2022/03/13 12:47:47;;;;;;;5.05;1.63;;;20.10;99.90;;;;;;4923079;29;20023;-71
2022/03/13 12:50:17;;;;;;;5.53;1.30;;;20.10;99.90;;;;;;4922802;29;20038;-69
2022/03/13 12:52:53;;;;;;;4.78;1.70;;;20.10;99.90;;;;;;4923712;29;20055;-71
2022/03/13 12:55:22;;;;;;;7.43;1.90;;;20.10;99.90;;;;;;4922987;29;20122;-69
2022/03/13 12:57:54;;;;;;;6.70;2.03;;;20.10;99.90;;;;;;4923194;29;20038;-73
2022/03/13 13:00:31;;;;;;;3.88;1.13;;;20.10;99.90;;;;;;4921340;29;20431;-71
2022/03/13 13:03:00;;;;;;;5.85;1.60;;;20.10;99.90;;;;;;4915476;29;20043;-70